createdAt,value
2019-03-21T00:02:38.675Z,4.07
2019-03-21T00:05:44.392Z,3.60
2019-03-21T00:08:50.123Z,3.87
2019-03-21T00:12:03.600Z,3.70
2019-03-21T00:15:20.905Z,4.40
2019-03-21T00:18:26.632Z,4.90
2019-03-21T00:21:32.355Z,4.67
2019-03-21T00:24:38.067Z,4.20
2019-03-21T00:27:43.790Z,3.13
2019-03-21T00:30:49.479Z,3.10
2019-03-21T00:33:55.216Z,3.10
2019-03-21T00:37:00.943Z,2.90
2019-03-21T00:40:08.794Z,3.17
2019-03-21T00:43:14.496Z,2.97
2019-03-21T00:46:20.167Z,3.33
2019-03-21T00:49:27.099Z,3.60
2019-03-21T00:52:32.851Z,3.10
2019-03-21T00:55:39.143Z,3.20
2019-03-21T00:58:44.776Z,3.50
2019-03-21T01:01:50.506Z,3.57
2019-03-21T01:04:56.229Z,3.30
2019-03-21T01:08:02.891Z,2.60
2019-03-21T01:11:08.567Z,2.40
2019-03-21T01:14:14.268Z,2.40
2019-03-21T01:17:19.963Z,2.40
2019-03-21T01:20:25.735Z,2.27
2019-03-21T01:23:31.460Z,2.93
2019-03-21T01:26:37.239Z,2.80
2019-03-21T01:29:42.987Z,2.70
2019-03-21T01:32:48.639Z,2.87
2019-03-21T01:35:54.386Z,3.00
2019-03-21T01:39:00.085Z,3.23
2019-03-21T01:42:06.261Z,2.67
2019-03-21T01:45:13.857Z,3.70
2019-03-21T01:48:19.500Z,3.20
2019-03-21T01:51:25.194Z,3.37
2019-03-21T01:54:30.892Z,3.80
2019-03-21T01:57:36.590Z,3.10
2019-03-21T02:00:42.295Z,2.77
2019-03-21T02:03:48.126Z,2.30
2019-03-21T02:06:53.786Z,2.60
2019-03-21T02:09:59.700Z,2.40
2019-03-21T02:13:05.421Z,2.70
2019-03-21T02:16:11.089Z,2.40
2019-03-21T02:19:16.831Z,2.47
2019-03-21T02:22:22.476Z,2.83
2019-03-21T02:25:29.294Z,2.30
2019-03-21T02:28:35.177Z,2.53
2019-03-21T02:31:41.066Z,2.50
2019-03-21T02:34:46.795Z,2.90
2019-03-21T02:37:52.459Z,3.13
2019-03-21T02:40:59.290Z,2.90
2019-03-21T02:44:05.022Z,3.13
2019-03-21T02:47:10.650Z,2.80
2019-03-21T02:50:19.762Z,3.00
2019-03-21T02:53:25.444Z,3.57
2019-03-21T02:56:31.165Z,2.50
2019-03-21T02:59:36.903Z,3.07
2019-03-21T03:02:42.618Z,2.97
2019-03-21T03:05:48.341Z,3.30
2019-03-21T03:08:54.059Z,3.47
2019-03-21T03:11:59.856Z,2.93
2019-03-21T03:15:06.509Z,2.30
2019-03-21T03:18:12.265Z,2.73
2019-03-21T03:21:17.945Z,2.60
2019-03-21T03:24:25.565Z,2.57
2019-03-21T03:27:31.284Z,2.80
2019-03-21T03:30:36.990Z,2.37
2019-03-21T03:33:42.661Z,2.93
2019-03-21T03:36:48.386Z,3.00
2019-03-21T03:39:54.078Z,2.60
2019-03-21T03:42:59.730Z,2.67
2019-03-21T03:46:05.494Z,3.23
2019-03-21T03:49:11.169Z,4.03
2019-03-21T03:52:16.890Z,3.43
2019-03-21T03:55:22.561Z,3.20
2019-03-21T03:58:28.241Z,2.60
2019-03-21T04:01:33.914Z,2.90
2019-03-21T04:04:39.667Z,2.33
2019-03-21T04:07:45.397Z,2.60
2019-03-21T04:10:52.039Z,3.13
2019-03-21T04:13:57.723Z,3.00
2019-03-21T04:17:03.416Z,3.50
2019-03-21T04:20:11.043Z,2.57
2019-03-21T04:23:17.633Z,2.80
2019-03-21T04:26:26.691Z,3.20
2019-03-21T04:29:32.381Z,3.13
2019-03-21T04:32:38.023Z,3.10
2019-03-21T04:35:43.733Z,3.43
2019-03-21T04:38:49.360Z,3.73
2019-03-21T04:41:55.077Z,3.50
2019-03-21T04:45:00.794Z,3.63
2019-03-21T04:48:06.460Z,3.63
2019-03-21T04:51:12.153Z,4.00
2019-03-21T04:54:17.769Z,3.43
2019-03-21T04:57:23.487Z,3.73
2019-03-21T05:00:31.562Z,3.93
2019-03-21T05:03:38.228Z,4.30
2019-03-21T05:06:43.892Z,4.03
2019-03-21T05:09:49.649Z,3.27
2019-03-21T05:12:55.343Z,3.20
2019-03-21T05:16:00.992Z,3.63
2019-03-21T05:19:06.692Z,4.00
2019-03-21T05:22:12.371Z,3.47
2019-03-21T05:25:18.171Z,3.27
2019-03-21T05:28:24.828Z,3.93
2019-03-21T05:31:32.551Z,3.77
2019-03-21T05:34:38.244Z,3.50
2019-03-21T05:37:43.994Z,3.83
2019-03-21T05:40:49.642Z,4.20
2019-03-21T05:44:05.801Z,3.90
2019-03-21T05:47:11.446Z,4.57
2019-03-21T05:50:17.493Z,4.23
2019-03-21T05:53:23.270Z,4.73
2019-03-21T05:56:29.223Z,5.33
2019-03-21T05:59:34.897Z,5.83
2019-03-21T06:02:40.518Z,4.03
2019-03-21T06:05:49.455Z,3.80
2019-03-21T06:12:17.733Z,3.37
2019-03-21T06:15:28.782Z,3.40
2019-03-21T06:19:06.499Z,3.37
2019-03-21T06:22:37.281Z,3.57
2019-03-21T06:26:13.235Z,3.73
2019-03-21T06:29:18.902Z,3.83
2019-03-21T06:32:24.880Z,3.53
2019-03-21T06:35:31.628Z,3.40
2019-03-21T06:38:37.328Z,3.87
2019-03-21T06:41:43.039Z,3.03
2019-03-21T06:44:48.782Z,2.77
2019-03-21T06:47:54.485Z,2.30
2019-03-21T06:51:00.159Z,2.53
2019-03-21T06:54:05.989Z,2.80
2019-03-21T06:57:11.736Z,3.07
2019-03-21T07:00:17.523Z,3.10
2019-03-21T07:03:23.219Z,2.73
2019-03-21T07:06:28.925Z,2.97
2019-03-21T07:09:34.594Z,2.63
2019-03-21T07:12:40.307Z,2.80
2019-03-21T07:15:46.032Z,2.70
2019-03-21T07:18:51.743Z,2.90
2019-03-21T07:21:57.611Z,2.90
2019-03-21T07:25:03.395Z,3.80
2019-03-21T07:28:09.094Z,3.53
2019-03-21T07:31:14.803Z,3.60
2019-03-21T07:34:20.558Z,4.23
2019-03-21T07:37:26.212Z,4.23
2019-03-21T07:40:32.062Z,3.93
2019-03-21T07:43:37.823Z,3.57
2019-03-21T07:46:43.495Z,4.80
2019-03-21T07:49:49.192Z,4.13
2019-03-21T07:52:54.945Z,3.40
2019-03-21T07:56:00.626Z,3.83
2019-03-21T07:59:07.274Z,4.00
2019-03-21T08:02:13.032Z,3.70
2019-03-21T08:05:18.669Z,4.00
2019-03-21T08:08:24.407Z,3.97
2019-03-21T08:11:30.166Z,4.37
2019-03-21T08:14:35.834Z,4.77
2019-03-21T08:17:41.670Z,4.23
2019-03-21T08:20:56.242Z,4.20
2019-03-21T08:23:54.710Z,4.30
2019-03-21T08:27:01.423Z,4.33
2019-03-21T08:30:10.854Z,4.10
2019-03-21T08:33:16.529Z,4.10
2019-03-21T08:36:22.189Z,4.57
2019-03-21T08:39:27.913Z,4.53
2019-03-21T08:42:33.602Z,5.50
2019-03-21T08:45:39.381Z,4.63
2019-03-21T08:48:45.139Z,5.47
2019-03-21T08:51:50.819Z,4.70
2019-03-21T08:54:56.616Z,5.53
2019-03-21T08:58:02.228Z,4.67
2019-03-21T09:01:07.967Z,4.63
2019-03-21T09:04:13.686Z,4.93
2019-03-21T09:07:19.405Z,4.30
2019-03-21T09:10:25.076Z,4.70
2019-03-21T09:13:30.782Z,4.47
2019-03-21T09:16:36.486Z,3.53
2019-03-21T09:19:42.131Z,4.53
2019-03-21T09:22:47.832Z,4.10
2019-03-21T09:25:53.466Z,3.70
2019-03-21T09:28:59.175Z,3.33
2019-03-21T09:32:04.989Z,3.27
2019-03-21T09:35:12.429Z,3.20
2019-03-21T09:38:18.269Z,3.20
2019-03-21T09:41:23.970Z,3.10
2019-03-21T09:44:30.176Z,3.60
2019-03-21T09:47:35.999Z,3.17
2019-03-21T09:50:41.714Z,3.50
2019-03-21T09:53:47.422Z,4.10
2019-03-21T09:56:53.103Z,3.57
2019-03-21T09:59:58.835Z,3.43
2019-03-21T10:03:04.876Z,3.00
2019-03-21T10:06:10.588Z,3.33
2019-03-21T10:09:16.273Z,3.40
2019-03-21T10:12:21.966Z,3.30
2019-03-21T10:15:27.650Z,3.30
2019-03-21T10:18:33.279Z,3.10
2019-03-21T10:21:43.472Z,3.20
2019-03-21T10:24:46.342Z,3.03
2019-03-21T10:27:52.048Z,2.83
2019-03-21T10:30:57.719Z,3.33
2019-03-21T10:34:03.333Z,3.00
2019-03-21T10:37:09.029Z,2.63
2019-03-21T10:40:14.753Z,3.33
2019-03-21T10:43:20.601Z,2.77
2019-03-21T10:46:26.379Z,2.47
2019-03-21T10:49:32.166Z,2.67
2019-03-21T10:52:37.969Z,2.80
2019-03-21T10:55:43.662Z,3.07
2019-03-21T10:58:49.405Z,3.57
2019-03-21T11:02:06.680Z,3.20
2019-03-21T11:05:05.209Z,3.73
2019-03-21T11:08:10.970Z,4.27
2019-03-21T11:11:16.685Z,4.20
2019-03-21T11:14:22.371Z,3.67
2019-03-21T11:17:28.150Z,3.70
2019-03-21T11:20:35.441Z,3.37
2019-03-21T11:23:41.101Z,3.33
2019-03-21T11:26:46.834Z,3.63
2019-03-21T11:29:52.545Z,3.07
2019-03-21T11:32:58.305Z,3.33
2019-03-21T11:36:04.139Z,3.20
2019-03-21T11:39:09.833Z,3.53
2019-03-21T11:42:15.617Z,4.27
2019-03-21T11:45:21.452Z,3.90
2019-03-21T11:48:27.167Z,3.70
2019-03-21T11:51:33.863Z,3.70
2019-03-21T11:54:39.568Z,3.43
2019-03-21T11:57:45.309Z,4.03
2019-03-21T12:00:50.969Z,3.60
2019-03-21T12:03:56.759Z,3.67
2019-03-21T12:07:02.464Z,3.33
2019-03-21T12:10:08.446Z,3.23
2019-03-21T12:13:14.098Z,4.13
2019-03-21T12:16:19.817Z,3.80
2019-03-21T12:19:25.653Z,3.90
2019-03-21T12:22:31.347Z,4.13
2019-03-21T12:25:37.068Z,3.70
2019-03-21T12:28:42.732Z,3.87
2019-03-21T12:31:48.490Z,3.43
2019-03-21T12:34:54.226Z,3.63
2019-03-21T12:37:59.909Z,3.70
2019-03-21T12:41:06.610Z,3.77
2019-03-21T12:44:12.294Z,3.57
2019-03-21T12:47:17.982Z,3.13
2019-03-21T12:50:23.771Z,3.73
2019-03-21T12:53:29.578Z,3.50
2019-03-21T12:56:35.280Z,3.80
2019-03-21T12:59:40.975Z,4.10
2019-03-21T13:02:46.646Z,3.40
2019-03-21T13:05:52.295Z,3.37
2019-03-21T13:08:58.019Z,4.50
2019-03-21T13:12:03.725Z,3.60
2019-03-21T13:15:10.556Z,4.40
2019-03-21T13:18:16.205Z,4.20
2019-03-21T13:21:21.860Z,3.93
2019-03-21T13:24:27.670Z,3.83
2019-03-21T13:27:33.325Z,4.00
2019-03-21T13:30:39.016Z,3.97
2019-03-21T13:33:44.691Z,4.10
2019-03-21T13:36:50.398Z,3.73
2019-03-21T13:39:56.058Z,3.87
2019-03-21T13:43:01.850Z,3.60
2019-03-21T13:46:07.721Z,3.70
2019-03-21T13:49:13.408Z,3.83
2019-03-21T13:52:19.050Z,3.53
2019-03-21T13:55:24.715Z,3.60
2019-03-21T13:58:30.427Z,3.73
2019-03-21T14:01:36.198Z,3.63
2019-03-21T14:04:41.865Z,3.50
2019-03-21T14:07:47.581Z,2.80
2019-03-21T14:10:53.275Z,3.30
2019-03-21T14:13:59.019Z,3.60
2019-03-21T14:17:04.674Z,3.53
2019-03-21T14:20:11.220Z,3.73
2019-03-21T14:23:17.656Z,3.70
2019-03-21T14:26:23.361Z,3.37
2019-03-21T14:29:28.990Z,3.73
2019-03-21T14:32:34.706Z,3.47
2019-03-21T14:35:40.335Z,3.23
2019-03-21T14:38:45.996Z,3.97
2019-03-21T14:41:51.823Z,3.33
2019-03-21T14:44:57.513Z,3.20
2019-03-21T14:48:03.177Z,3.57
2019-03-21T14:51:10.513Z,2.90
2019-03-21T14:54:16.155Z,3.70
2019-03-21T14:57:21.897Z,3.70
2019-03-21T15:00:27.789Z,3.80
2019-03-21T15:03:33.651Z,3.47
2019-03-21T15:06:39.356Z,2.93
2019-03-21T15:09:45.016Z,2.63
2019-03-21T15:12:50.674Z,3.17
2019-03-21T15:15:56.353Z,3.33
2019-03-21T15:19:02.121Z,2.67
2019-03-21T15:22:07.794Z,2.83
2019-03-21T15:25:13.643Z,2.10
2019-03-21T15:28:19.332Z,2.80
2019-03-21T15:31:25.074Z,2.33
2019-03-21T15:34:30.769Z,2.50
2019-03-21T15:37:36.430Z,2.50
2019-03-21T15:40:42.143Z,2.57
2019-03-21T15:43:47.850Z,2.00
2019-03-21T15:46:53.545Z,2.43
2019-03-21T15:49:59.339Z,2.20
2019-03-21T15:53:05.422Z,2.60
2019-03-21T15:56:11.149Z,1.87
2019-03-21T15:59:17.644Z,1.97
2019-03-21T16:02:23.392Z,1.87
2019-03-21T16:05:29.069Z,1.77
2019-03-21T16:08:34.833Z,2.27
2019-03-21T16:15:51.281Z,2.10
2019-03-21T16:18:57.070Z,2.10
2019-03-21T16:22:02.750Z,2.37
2019-03-21T16:25:09.725Z,2.07
2019-03-21T16:28:15.489Z,2.10
2019-03-21T16:31:22.864Z,2.30
2019-03-21T16:34:28.761Z,2.33
2019-03-21T16:37:35.516Z,2.20
2019-03-21T16:40:41.263Z,2.37
2019-03-21T16:43:47.061Z,2.30
2019-03-21T16:46:53.109Z,2.20
2019-03-21T16:49:58.791Z,2.70
2019-03-21T16:53:04.844Z,2.57
2019-03-21T16:56:10.640Z,2.20
2019-03-21T16:59:16.435Z,2.40
2019-03-21T17:17:53.983Z,2.77
2019-03-21T17:25:02.388Z,12.07
2019-03-21T17:28:08.674Z,6.43
2019-03-21T17:31:23.440Z,7.00
2019-03-21T17:34:33.417Z,5.70
2019-03-21T17:44:40.117Z,4.17
2019-03-21T17:47:45.949Z,4.00
2019-03-21T17:50:53.098Z,5.83
2019-03-21T17:53:59.919Z,4.93
2019-03-21T17:57:05.975Z,9.43
2019-03-21T18:00:14.135Z,9.70
2019-03-21T18:03:19.826Z,6.83
2019-03-21T18:06:25.663Z,7.30
2019-03-21T18:09:35.643Z,5.00
2019-03-21T18:12:41.592Z,5.70
2019-03-21T18:15:47.586Z,7.37
2019-03-21T18:18:53.325Z,5.50
2019-03-21T18:21:59.069Z,3.80
2019-03-21T18:25:04.898Z,10.33
2019-03-21T18:28:10.668Z,3.93
2019-03-21T18:31:16.451Z,5.93
2019-03-21T18:34:22.175Z,4.93
2019-03-21T18:37:27.877Z,3.50
2019-03-21T18:40:33.703Z,4.00
2019-03-21T18:43:39.470Z,4.40
2019-03-21T18:46:45.216Z,2.60
2019-03-21T18:49:50.917Z,5.03
2019-03-21T18:52:56.732Z,3.60
2019-03-21T18:56:02.436Z,3.67
2019-03-21T18:59:08.082Z,5.23
2019-03-21T19:02:13.808Z,4.90
2019-03-21T19:05:19.555Z,5.53
2019-03-21T19:08:25.241Z,4.40
2019-03-21T19:11:33.759Z,5.53
2019-03-21T19:14:39.493Z,5.37
2019-03-21T19:17:45.319Z,5.83
2019-03-21T19:20:51.015Z,8.90
2019-03-21T19:23:57.049Z,13.97
2019-03-21T19:27:02.857Z,7.63
2019-03-21T19:30:09.429Z,6.27
2019-03-21T19:33:15.185Z,9.20
2019-03-21T19:36:20.885Z,7.20
2019-03-21T19:39:26.670Z,12.07
2019-03-21T19:42:32.404Z,7.60
2019-03-21T19:45:38.216Z,6.27
2019-03-21T19:48:50.241Z,5.40
2019-03-21T19:51:51.274Z,7.30
2019-03-21T19:54:56.966Z,4.27
2019-03-21T19:58:02.750Z,5.87
2019-03-21T20:01:08.670Z,10.10
2019-03-21T20:04:14.534Z,5.73
2019-03-21T20:07:20.264Z,11.87
2019-03-21T20:10:26.122Z,7.40
2019-03-21T20:13:31.920Z,5.47
2019-03-21T20:16:37.626Z,4.60
2019-03-21T20:19:43.433Z,3.00
2019-03-21T20:22:49.341Z,5.67
2019-03-21T20:25:55.272Z,3.90
2019-03-21T20:29:01.038Z,4.70
2019-03-21T20:32:06.874Z,5.20
2019-03-21T20:35:12.585Z,4.07
2019-03-21T20:38:18.518Z,5.67
2019-03-21T20:41:24.416Z,5.10
2019-03-21T20:44:30.252Z,4.97
2019-03-21T20:47:35.967Z,5.17
2019-03-21T20:50:41.696Z,4.10
2019-03-21T20:53:47.425Z,4.60
2019-03-21T20:56:53.189Z,3.80
2019-03-21T20:59:59.182Z,3.67
2019-03-21T21:03:04.929Z,4.57
2019-03-21T21:06:12.017Z,4.63
2019-03-21T21:09:17.809Z,7.73
2019-03-21T21:12:23.720Z,5.03
2019-03-21T21:15:29.541Z,4.50
2019-03-21T21:18:35.254Z,3.50
2019-03-21T21:21:41.005Z,3.20
2019-03-21T21:24:46.742Z,4.27
2019-03-21T21:27:52.489Z,3.47
2019-03-21T21:30:58.260Z,3.67
2019-03-21T21:34:04.170Z,4.40
2019-03-21T21:37:09.992Z,5.03
2019-03-21T21:40:16.788Z,5.20
2019-03-21T21:43:25.229Z,5.63
2019-03-21T21:46:31.052Z,7.00
2019-03-21T21:49:36.730Z,6.47
2019-03-21T21:52:42.638Z,7.40
2019-03-21T21:55:48.407Z,6.23
2019-03-21T21:58:54.161Z,6.37
2019-03-21T22:01:59.947Z,4.27
2019-03-21T22:05:06.016Z,4.17
2019-03-21T22:08:11.802Z,5.10
2019-03-21T22:11:17.711Z,5.23
2019-03-21T22:14:23.544Z,5.40
2019-03-21T22:17:29.291Z,4.90
2019-03-21T22:20:35.123Z,4.87
2019-03-21T22:23:40.784Z,5.30
2019-03-21T22:26:46.489Z,4.97
2019-03-21T22:29:52.308Z,4.20
2019-03-21T22:32:58.168Z,4.47
2019-03-21T22:36:06.466Z,4.37
2019-03-21T22:39:11.274Z,4.10
2019-03-21T22:42:16.988Z,4.10
2019-03-21T22:45:22.769Z,3.83
2019-03-21T22:48:28.535Z,3.83
2019-03-21T22:51:34.222Z,4.50
2019-03-21T22:54:39.897Z,4.30
2019-03-21T22:57:45.693Z,4.80
2019-03-21T23:00:53.790Z,4.77
2019-03-21T23:03:59.655Z,4.70
2019-03-21T23:07:05.326Z,4.73
2019-03-21T23:10:12.428Z,5.60
2019-03-21T23:13:18.026Z,5.30
2019-03-21T23:16:23.632Z,6.20
2019-03-21T23:19:30.415Z,5.90
2019-03-21T23:22:36.105Z,6.73
2019-03-21T23:25:41.738Z,6.17
2019-03-21T23:28:47.434Z,6.30
2019-03-21T23:31:53.132Z,6.33
2019-03-21T23:34:58.739Z,6.10
2019-03-21T23:38:04.452Z,6.27
2019-03-21T23:41:10.101Z,6.30
2019-03-21T23:44:16.103Z,6.40
2019-03-21T23:47:22.015Z,8.40
2019-03-21T23:50:27.627Z,4.73
2019-03-21T23:53:33.257Z,5.00
2019-03-21T23:56:38.948Z,5.13
2019-03-21T23:59:44.640Z,5.10
